createdAt,value
2023-02-19T00:01:13.390Z,5.28
2023-02-19T00:03:41.205Z,5.03
2023-02-19T00:06:10.622Z,4.70
2023-02-19T00:08:38.796Z,4.95
2023-02-19T00:11:17.860Z,5.43
2023-02-19T00:13:47.990Z,5.57
2023-02-19T00:16:23.138Z,5.28
2023-02-19T00:18:50.546Z,5.47
2023-02-19T00:21:17.972Z,5.90
2023-02-19T00:23:49.246Z,4.53
2023-02-19T00:26:18.475Z,5.05
2023-02-19T00:28:49.845Z,5.38
2023-02-19T00:31:22.825Z,5.20
2023-02-19T00:33:51.969Z,4.97
2023-02-19T00:36:19.137Z,4.88
2023-02-19T00:38:46.292Z,5.35
2023-02-19T00:41:20.323Z,5.05
2023-02-19T00:43:57.383Z,6.43
2023-02-19T00:46:30.297Z,5.85
2023-02-19T00:48:57.819Z,7.57
2023-02-19T00:51:27.305Z,5.50
2023-02-19T00:53:54.238Z,6.93
2023-02-19T00:56:21.298Z,6.25
2023-02-19T00:58:48.845Z,5.95
2023-02-19T01:01:16.410Z,5.70
2023-02-19T01:03:43.572Z,6.63
2023-02-19T01:06:13.019Z,6.85
2023-02-19T01:08:39.691Z,6.45
2023-02-19T01:11:07.644Z,5.90
2023-02-19T01:13:34.685Z,6.18
2023-02-19T01:16:04.094Z,6.53
2023-02-19T01:18:32.184Z,5.95
2023-02-19T01:20:59.086Z,5.88
2023-02-19T01:23:26.172Z,6.28
2023-02-19T01:25:52.809Z,5.70
2023-02-19T01:28:19.562Z,6.13
2023-02-19T01:30:46.189Z,5.97
2023-02-19T01:33:12.751Z,6.32
2023-02-19T01:35:40.025Z,5.50
2023-02-19T01:38:08.317Z,6.45
2023-02-19T01:40:35.006Z,5.60
2023-02-19T01:43:01.649Z,5.28
2023-02-19T01:45:31.026Z,5.80
2023-02-19T01:48:07.996Z,5.43
2023-02-19T01:50:40.403Z,4.97
2023-02-19T01:53:11.219Z,5.45
2023-02-19T01:55:39.417Z,5.65
2023-02-19T01:58:06.510Z,5.03
2023-02-19T02:00:34.468Z,6.00
2023-02-19T02:03:01.828Z,5.95
2023-02-19T02:05:50.967Z,5.65
2023-02-19T02:08:37.102Z,4.68
2023-02-19T02:11:04.717Z,6.80
2023-02-19T02:13:33.928Z,7.03
2023-02-19T02:16:16.854Z,5.95
2023-02-19T02:19:15.377Z,9.50
2023-02-19T02:22:00.329Z,8.85
2023-02-19T02:24:45.741Z,9.07
2023-02-19T02:27:36.882Z,10.25
2023-02-19T02:30:27.458Z,10.45
2023-02-19T02:33:05.851Z,9.65
2023-02-19T02:35:42.794Z,6.40
2023-02-19T02:38:13.132Z,5.13
2023-02-19T02:40:43.087Z,5.78
2023-02-19T02:43:09.883Z,5.60
2023-02-19T02:45:36.935Z,7.13
2023-02-19T02:48:07.716Z,4.63
2023-02-19T02:51:03.280Z,6.25
2023-02-19T02:53:59.025Z,5.55
2023-02-19T02:56:26.640Z,5.25
2023-02-19T02:58:56.544Z,4.50
2023-02-19T03:01:48.227Z,4.85
2023-02-19T03:04:27.472Z,5.00
2023-02-19T03:06:55.396Z,4.85
2023-02-19T03:09:40.727Z,4.93
2023-02-19T03:12:32.035Z,5.13
2023-02-19T03:15:21.757Z,4.68
2023-02-19T03:18:11.285Z,5.32
2023-02-19T03:20:43.365Z,5.03
2023-02-19T03:23:11.881Z,5.65
2023-02-19T03:25:58.697Z,4.85
2023-02-19T03:28:48.946Z,4.47
2023-02-19T03:31:20.915Z,4.60
2023-02-19T03:33:52.567Z,5.22
2023-02-19T03:36:27.429Z,4.93
2023-02-19T03:39:04.457Z,5.05
2023-02-19T03:41:49.037Z,4.78
2023-02-19T03:44:18.313Z,5.05
2023-02-19T03:47:03.573Z,5.03
2023-02-19T03:49:42.534Z,4.75
2023-02-19T03:52:28.746Z,4.88
2023-02-19T03:55:09.612Z,5.20
2023-02-19T03:57:51.844Z,5.47
2023-02-19T04:00:24.850Z,5.25
2023-02-19T04:03:02.882Z,4.50
2023-02-19T04:05:32.168Z,4.90
2023-02-19T04:08:06.376Z,4.30
2023-02-19T04:10:33.388Z,4.60
2023-02-19T04:13:06.504Z,4.97
2023-02-19T04:15:35.276Z,4.03
2023-02-19T04:18:09.094Z,3.97
2023-02-19T04:20:42.401Z,4.30
2023-02-19T04:23:09.496Z,3.90
2023-02-19T04:25:38.221Z,4.90
2023-02-19T04:28:05.316Z,3.60
2023-02-19T04:30:32.063Z,3.88
2023-02-19T04:32:58.671Z,4.20
2023-02-19T04:35:25.227Z,3.95
2023-02-19T04:37:51.870Z,4.22
2023-02-19T04:40:18.575Z,3.70
2023-02-19T04:42:45.195Z,3.90
2023-02-19T04:45:11.775Z,4.22
2023-02-19T04:47:38.380Z,3.95
2023-02-19T04:50:05.265Z,3.90
2023-02-19T04:52:33.344Z,4.07
2023-02-19T04:54:59.964Z,3.80
2023-02-19T04:57:26.662Z,4.10
2023-02-19T04:59:53.573Z,4.10
2023-02-19T05:02:20.302Z,4.35
2023-02-19T05:04:46.843Z,4.10
2023-02-19T05:07:13.606Z,3.67
2023-02-19T05:09:40.230Z,4.47
2023-02-19T05:12:07.082Z,4.05
2023-02-19T05:14:33.834Z,3.88
2023-02-19T05:17:00.409Z,3.95
2023-02-19T05:19:27.107Z,4.70
2023-02-19T05:21:53.758Z,3.95
2023-02-19T05:24:20.503Z,4.20
2023-02-19T05:26:48.301Z,4.22
2023-02-19T05:29:14.903Z,3.55
2023-02-19T05:31:41.690Z,3.53
2023-02-19T05:34:08.390Z,3.92
2023-02-19T05:36:34.939Z,4.15
2023-02-19T05:39:01.685Z,5.03
2023-02-19T05:41:30.678Z,4.25
2023-02-19T05:43:58.028Z,3.95
2023-02-19T05:46:27.376Z,4.57
2023-02-19T05:48:54.467Z,4.30
2023-02-19T05:51:23.555Z,4.72
2023-02-19T05:53:51.202Z,4.72
2023-02-19T05:56:23.737Z,4.43
2023-02-19T05:58:50.397Z,4.72
2023-02-19T06:01:19.252Z,5.35
2023-02-19T06:03:46.022Z,4.70
2023-02-19T06:06:14.526Z,5.30
2023-02-19T06:08:41.279Z,5.00
2023-02-19T06:11:08.264Z,5.75
2023-02-19T06:13:35.264Z,5.03
2023-02-19T06:16:06.218Z,5.00
2023-02-19T06:18:33.006Z,4.95
2023-02-19T06:21:04.617Z,5.18
2023-02-19T06:23:31.945Z,4.85
2023-02-19T06:26:10.075Z,5.38
2023-02-19T06:28:37.126Z,4.00
2023-02-19T06:31:05.112Z,5.78
2023-02-19T06:33:32.365Z,8.80
2023-02-19T06:36:01.697Z,6.97
2023-02-19T06:38:28.799Z,6.75
2023-02-19T06:40:55.775Z,7.40
2023-02-19T06:43:22.395Z,5.90
2023-02-19T06:45:49.081Z,5.80
2023-02-19T06:48:15.795Z,4.78
2023-02-19T06:50:42.400Z,4.75
2023-02-19T06:53:10.085Z,5.30
2023-02-19T06:55:36.713Z,7.53
2023-02-19T06:58:03.268Z,6.40
2023-02-19T07:00:30.078Z,6.90
2023-02-19T07:02:56.766Z,5.55
2023-02-19T07:05:23.559Z,6.22
2023-02-19T07:07:50.187Z,7.15
2023-02-19T07:10:17.281Z,5.68
2023-02-19T07:12:43.992Z,6.60
2023-02-19T07:15:10.704Z,6.93
2023-02-19T07:17:37.321Z,5.88
2023-02-19T07:20:04.238Z,5.78
2023-02-19T07:22:30.856Z,6.50
2023-02-19T07:24:57.459Z,5.63
2023-02-19T07:27:24.172Z,6.28
2023-02-19T07:29:50.987Z,6.28
2023-02-19T07:32:17.607Z,6.43
2023-02-19T07:34:44.286Z,8.27
2023-02-19T07:37:11.166Z,10.02
2023-02-19T07:39:38.954Z,7.53
2023-02-19T07:42:05.908Z,6.47
2023-02-19T07:44:32.610Z,7.45
2023-02-19T07:46:59.598Z,7.88
2023-02-19T07:49:26.231Z,7.20
2023-02-19T07:51:52.846Z,4.72
2023-02-19T07:54:19.714Z,5.30
2023-02-19T07:56:46.575Z,5.07
2023-02-19T07:59:13.350Z,4.57
2023-02-19T08:01:58.703Z,4.80
2023-02-19T08:04:26.123Z,4.03
2023-02-19T08:06:53.351Z,3.90
2023-02-19T08:09:20.416Z,3.60
2023-02-19T08:12:05.995Z,6.13
2023-02-19T08:14:33.686Z,8.95
2023-02-19T08:17:01.563Z,5.88
2023-02-19T08:19:28.282Z,3.75
2023-02-19T08:21:55.029Z,3.67
2023-02-19T08:24:21.663Z,5.20
2023-02-19T08:26:48.355Z,4.70
2023-02-19T08:29:16.352Z,4.70
2023-02-19T08:31:43.086Z,4.03
2023-02-19T08:34:09.958Z,4.55
2023-02-19T08:36:36.703Z,4.25
2023-02-19T08:39:06.304Z,4.28
2023-02-19T08:41:32.940Z,3.65
2023-02-19T08:43:59.515Z,4.20
2023-02-19T08:46:26.254Z,3.65
2023-02-19T08:48:52.964Z,4.28
2023-02-19T08:51:29.524Z,3.88
2023-02-19T08:53:56.617Z,3.20
2023-02-19T08:56:23.414Z,3.70
2023-02-19T08:58:50.404Z,4.15
2023-02-19T09:01:18.839Z,3.10
2023-02-19T09:03:45.785Z,3.30
2023-02-19T09:06:20.540Z,3.78
2023-02-19T09:08:47.305Z,3.00
2023-02-19T09:11:15.073Z,3.65
2023-02-19T09:13:41.961Z,3.50
2023-02-19T09:16:08.960Z,2.53
2023-02-19T09:18:36.506Z,3.28
2023-02-19T09:21:05.483Z,3.72
2023-02-19T09:23:36.642Z,3.47
2023-02-19T09:26:06.824Z,2.70
2023-02-19T09:28:33.436Z,2.95
2023-02-19T09:31:08.404Z,3.15
2023-02-19T09:33:35.620Z,4.38
2023-02-19T09:36:03.013Z,4.15
2023-02-19T09:38:34.046Z,3.97
2023-02-19T09:41:07.944Z,3.35
2023-02-19T09:43:35.641Z,3.65
2023-02-19T09:46:26.331Z,6.45
2023-02-19T09:49:03.683Z,3.95
2023-02-19T09:51:33.950Z,3.22
2023-02-19T09:54:04.320Z,3.28
2023-02-19T09:56:31.404Z,3.38
2023-02-19T09:59:02.000Z,2.85
2023-02-19T10:01:33.591Z,3.05
2023-02-19T10:04:04.056Z,2.88
2023-02-19T10:06:32.740Z,3.40
2023-02-19T10:09:24.125Z,2.97
2023-02-19T10:11:52.660Z,3.40
2023-02-19T10:14:35.500Z,3.05
2023-02-19T10:17:05.480Z,2.65
2023-02-19T10:19:48.009Z,2.70
2023-02-19T10:22:14.640Z,3.70
2023-02-19T10:24:42.853Z,3.40
2023-02-19T10:27:14.947Z,3.10
2023-02-19T10:32:24.315Z,3.00
2023-02-19T10:35:14.128Z,2.70
2023-02-19T10:37:50.654Z,2.75
2023-02-19T10:40:23.550Z,2.80
2023-02-19T10:42:59.616Z,3.75
2023-02-19T10:45:47.677Z,3.25
2023-02-19T10:48:28.353Z,3.20
2023-02-19T10:51:05.065Z,2.85
2023-02-19T10:53:50.701Z,3.05
2023-02-19T10:56:29.833Z,3.40
2023-02-19T10:59:16.399Z,3.22
2023-02-19T11:02:01.804Z,3.35
2023-02-19T11:04:35.200Z,3.22
2023-02-19T11:07:17.083Z,3.65
2023-02-19T11:09:53.559Z,3.17
2023-02-19T11:12:29.904Z,3.10
2023-02-19T11:14:57.023Z,3.05
2023-02-19T11:17:29.334Z,3.20
2023-02-19T11:19:58.830Z,2.97
2023-02-19T11:22:42.114Z,2.80
2023-02-19T11:25:15.482Z,2.95
2023-02-19T11:28:08.058Z,2.90
2023-02-19T11:30:38.546Z,3.58
2023-02-19T11:33:17.290Z,3.22
2023-02-19T11:35:47.932Z,2.40
2023-02-19T11:38:19.711Z,2.28
2023-02-19T11:41:04.995Z,2.97
2023-02-19T11:43:50.372Z,2.40
2023-02-19T11:46:28.773Z,2.58
2023-02-19T11:49:34.086Z,2.75
2023-02-19T11:52:34.194Z,2.83
2023-02-19T11:55:20.962Z,6.90
2023-02-19T11:57:58.919Z,4.22
2023-02-19T12:00:29.168Z,2.30
2023-02-19T12:03:32.027Z,2.67
2023-02-19T12:06:12.678Z,2.88
2023-02-19T12:09:15.119Z,2.17
2023-02-19T12:12:21.816Z,2.35
2023-02-19T12:15:49.003Z,3.00
2023-02-19T12:18:28.726Z,2.92
2023-02-19T12:21:04.723Z,2.60
2023-02-19T12:23:45.896Z,2.72
2023-02-19T12:26:25.054Z,2.60
2023-02-19T12:29:12.615Z,2.60
2023-02-19T12:31:56.362Z,2.63
2023-02-19T12:34:32.212Z,2.75
2023-02-19T12:37:11.744Z,2.30
2023-02-19T12:39:49.677Z,2.40
2023-02-19T12:42:34.849Z,3.00
2023-02-19T12:45:07.337Z,2.75
2023-02-19T12:47:40.886Z,2.30
2023-02-19T12:50:21.870Z,2.58
2023-02-19T12:53:14.396Z,2.72
2023-02-19T12:55:45.331Z,3.97
2023-02-19T12:58:21.891Z,3.33
2023-02-19T13:00:53.373Z,2.38
2023-02-19T13:03:34.904Z,2.80
2023-02-19T13:06:04.576Z,2.28
2023-02-19T13:11:37.767Z,2.45
2023-02-19T13:14:21.822Z,2.42
2023-02-19T13:16:55.890Z,2.60
2023-02-19T13:19:22.551Z,2.25
2023-02-19T13:22:22.247Z,2.92
2023-02-19T13:24:50.973Z,2.97
2023-02-19T13:30:32.648Z,2.60
2023-02-19T13:33:32.386Z,2.42
2023-02-19T13:36:24.135Z,2.85
2023-02-19T13:38:57.763Z,2.58
2023-02-19T13:41:28.763Z,3.08
2023-02-19T13:43:59.620Z,2.70
2023-02-19T13:46:40.624Z,2.78
2023-02-19T13:49:29.205Z,2.95
2023-02-19T13:51:56.995Z,2.83
2023-02-19T13:54:31.474Z,2.83
2023-02-19T13:57:19.811Z,3.05
2023-02-19T13:59:48.282Z,2.40
2023-02-19T14:02:21.307Z,3.28
2023-02-19T14:04:51.976Z,3.50
2023-02-19T14:07:19.006Z,2.95
2023-02-19T14:09:47.206Z,2.88
2023-02-19T14:12:15.907Z,2.95
2023-02-19T14:14:47.114Z,3.30
2023-02-19T14:17:29.376Z,5.15
2023-02-19T14:20:22.881Z,3.75
2023-02-19T14:23:01.593Z,2.72
2023-02-19T14:25:31.192Z,3.78
2023-02-19T14:28:06.823Z,3.50
2023-02-19T14:30:35.328Z,3.00
2023-02-19T14:33:15.786Z,3.47
2023-02-19T14:35:45.529Z,3.13
2023-02-19T14:38:24.233Z,2.97
2023-02-19T14:40:54.608Z,3.15
2023-02-19T14:43:24.552Z,3.10
2023-02-19T14:46:04.644Z,3.20
2023-02-19T14:48:37.135Z,3.50
2023-02-19T14:51:08.962Z,4.10
2023-02-19T14:53:42.133Z,4.53
2023-02-19T14:56:21.448Z,2.95
2023-02-19T14:59:17.186Z,3.53
2023-02-19T15:01:44.463Z,3.53
2023-02-19T15:04:37.576Z,4.13
2023-02-19T15:07:08.804Z,4.25
2023-02-19T15:09:43.804Z,4.17
2023-02-19T15:12:26.289Z,4.50
2023-02-19T15:15:01.407Z,4.28
2023-02-19T15:17:31.844Z,4.50
2023-02-19T15:20:03.253Z,4.65
2023-02-19T15:22:33.928Z,4.25
2023-02-19T15:25:05.375Z,4.72
2023-02-19T15:27:33.009Z,6.82
2023-02-19T15:29:59.887Z,4.72
2023-02-19T15:32:28.159Z,6.65
2023-02-19T15:35:00.491Z,5.53
2023-02-19T15:37:31.098Z,5.85
2023-02-19T15:40:00.681Z,5.68
2023-02-19T15:43:38.622Z,4.10
2023-02-19T15:47:10.697Z,4.38
2023-02-19T15:52:50.276Z,3.97
2023-02-19T15:55:27.185Z,4.20
2023-02-19T15:58:28.942Z,4.88
2023-02-19T16:01:03.645Z,4.67
2023-02-19T16:03:35.419Z,4.60
2023-02-19T16:06:11.549Z,5.65
2023-02-19T16:08:43.562Z,7.32
2023-02-19T16:13:52.534Z,8.57
2023-02-19T16:16:34.946Z,7.88
2023-02-19T16:19:02.457Z,6.03
2023-02-19T16:21:29.418Z,6.10
2023-02-19T16:24:13.923Z,6.82
2023-02-19T16:26:42.239Z,5.97
2023-02-19T16:29:27.828Z,5.32
2023-02-19T16:31:58.142Z,5.00
2023-02-19T16:34:49.313Z,4.28
2023-02-19T16:37:41.202Z,4.18
2023-02-19T16:40:08.014Z,4.75
2023-02-19T16:42:36.264Z,5.85
2023-02-19T16:45:03.157Z,5.20
2023-02-19T16:47:32.162Z,5.40
2023-02-19T16:50:01.774Z,4.65
2023-02-19T16:52:29.364Z,4.95
2023-02-19T16:54:56.451Z,4.70
2023-02-19T16:57:23.439Z,4.47
2023-02-19T16:59:50.481Z,4.43
2023-02-19T17:02:21.358Z,5.00
2023-02-19T17:04:49.387Z,4.78
2023-02-19T17:07:18.584Z,5.82
2023-02-19T17:09:45.365Z,4.25
2023-02-19T17:12:20.013Z,5.03
2023-02-19T17:14:47.257Z,4.57
2023-02-19T17:17:14.166Z,7.13
2023-02-19T17:19:41.100Z,5.35
2023-02-19T17:22:19.456Z,5.25
2023-02-19T17:24:47.570Z,4.90
2023-02-19T17:27:17.680Z,4.35
2023-02-19T17:29:50.343Z,4.60
2023-02-19T17:32:40.096Z,5.53
2023-02-19T17:35:15.917Z,6.07
2023-02-19T17:37:56.918Z,5.78
2023-02-19T17:40:39.608Z,5.43
2023-02-19T17:46:27.864Z,5.07
2023-02-19T17:49:10.616Z,4.65
2023-02-19T17:51:38.833Z,4.55
2023-02-19T17:54:08.351Z,4.72
2023-02-19T17:57:01.115Z,4.47
2023-02-19T18:02:12.652Z,4.45
2023-02-19T18:04:41.105Z,4.68
2023-02-19T18:07:08.018Z,4.72
2023-02-19T18:09:34.831Z,4.95
2023-02-19T18:12:02.657Z,5.90
2023-02-19T18:14:32.242Z,6.13
2023-02-19T18:16:59.180Z,5.57
2023-02-19T18:19:26.188Z,5.70
2023-02-19T18:21:53.240Z,5.93
2023-02-19T18:24:20.079Z,6.30
2023-02-19T18:26:46.884Z,6.53
2023-02-19T18:29:13.802Z,4.55
2023-02-19T18:31:44.617Z,4.68
2023-02-19T18:34:19.115Z,4.20
2023-02-19T18:36:47.634Z,4.47
2023-02-19T18:39:14.770Z,3.85
2023-02-19T18:41:41.596Z,4.05
2023-02-19T18:44:23.733Z,4.45
2023-02-19T18:46:51.177Z,3.70
2023-02-19T18:49:18.494Z,6.30
2023-02-19T18:51:46.901Z,4.28
2023-02-19T18:54:14.303Z,3.75
2023-02-19T18:56:46.150Z,4.10
2023-02-19T18:59:13.768Z,4.70
2023-02-19T19:01:40.705Z,3.90
2023-02-19T19:04:07.871Z,4.70
2023-02-19T19:06:35.910Z,4.95
2023-02-19T19:09:03.896Z,4.60
2023-02-19T19:11:31.079Z,5.97
2023-02-19T19:13:58.125Z,4.40
2023-02-19T19:16:29.929Z,4.97
2023-02-19T19:18:57.024Z,5.28
2023-02-19T19:21:24.033Z,4.88
2023-02-19T19:23:51.092Z,4.75
2023-02-19T19:26:17.873Z,5.25
2023-02-19T19:28:44.995Z,6.43
2023-02-19T19:31:13.023Z,6.85
2023-02-19T19:33:43.828Z,6.10
2023-02-19T19:36:11.684Z,5.90
2023-02-19T19:38:39.238Z,7.43
2023-02-19T19:41:06.050Z,5.20
2023-02-19T19:43:33.629Z,5.07
2023-02-19T19:46:03.875Z,5.43
2023-02-19T19:48:33.874Z,6.90
2023-02-19T19:51:03.472Z,6.25
2023-02-19T19:53:30.346Z,6.53
2023-02-19T19:55:57.676Z,6.47
2023-02-19T19:58:27.225Z,5.88
2023-02-19T20:00:54.435Z,5.47
2023-02-19T20:03:23.465Z,6.07
2023-02-19T20:05:51.286Z,5.35
2023-02-19T20:08:18.351Z,4.90
2023-02-19T20:10:45.530Z,4.90
2023-02-19T20:13:15.717Z,5.07
2023-02-19T20:15:42.389Z,5.55
2023-02-19T20:18:09.586Z,4.78
2023-02-19T20:20:36.354Z,5.45
2023-02-19T20:23:03.358Z,5.20
2023-02-19T20:25:30.158Z,5.13
2023-02-19T20:27:57.041Z,5.25
2023-02-19T20:30:24.835Z,5.93
2023-02-19T20:32:52.210Z,5.35
2023-02-19T20:35:22.073Z,5.60
2023-02-19T20:37:49.574Z,5.28
2023-02-19T20:41:03.383Z,6.15
2023-02-19T20:43:34.755Z,6.05
2023-02-19T20:46:32.493Z,5.43
2023-02-19T20:49:08.781Z,6.05
2023-02-19T20:51:47.643Z,5.35
2023-02-19T20:54:18.642Z,6.68
2023-02-19T20:56:55.531Z,5.63
2023-02-19T20:59:28.866Z,5.65
2023-02-19T21:02:19.328Z,5.80
2023-02-19T21:04:48.826Z,5.45
2023-02-19T21:07:15.842Z,6.32
2023-02-19T21:09:53.236Z,6.22
2023-02-19T21:12:22.318Z,8.20
2023-02-19T21:14:49.593Z,6.95
2023-02-19T21:17:16.943Z,5.57
2023-02-19T21:19:50.144Z,9.10
2023-02-19T21:22:24.263Z,6.47
2023-02-19T21:24:53.039Z,6.47
2023-02-19T21:27:20.966Z,6.15
2023-02-19T21:29:48.793Z,6.78
2023-02-19T21:32:16.870Z,6.40
2023-02-19T21:34:43.757Z,5.90
2023-02-19T21:37:13.905Z,7.45
2023-02-19T21:39:57.900Z,6.45
2023-02-19T21:45:32.646Z,6.35
2023-02-19T21:47:59.414Z,6.68
2023-02-19T21:50:26.081Z,6.03
2023-02-19T21:52:52.938Z,6.75
2023-02-19T21:55:19.541Z,7.50
2023-02-19T21:57:46.100Z,6.53
2023-02-19T22:00:13.480Z,6.88
2023-02-19T22:02:40.126Z,5.68
2023-02-19T22:05:07.124Z,6.40
2023-02-19T22:07:33.829Z,6.13
2023-02-19T22:10:00.422Z,5.90
2023-02-19T22:12:26.999Z,6.07
2023-02-19T22:14:53.602Z,6.50
2023-02-19T22:17:20.725Z,6.30
2023-02-19T22:19:47.357Z,6.65
2023-02-19T22:22:14.827Z,6.30
2023-02-19T22:24:41.501Z,6.30
2023-02-19T22:27:08.159Z,5.75
2023-02-19T22:29:34.897Z,6.68
2023-02-19T22:32:01.590Z,5.75
2023-02-19T22:34:28.255Z,6.25
2023-02-19T22:36:54.856Z,9.63
2023-02-19T22:39:25.568Z,10.20
2023-02-19T22:41:53.586Z,7.72
2023-02-19T22:44:20.516Z,6.50
2023-02-19T22:46:55.467Z,6.30
2023-02-19T22:49:23.163Z,6.43
2023-02-19T22:51:53.600Z,6.30
2023-02-19T22:54:25.011Z,6.45
2023-02-19T22:56:51.725Z,6.00
2023-02-19T22:59:18.340Z,7.15
2023-02-19T23:01:44.934Z,7.13
2023-02-19T23:04:11.699Z,6.90
2023-02-19T23:06:41.516Z,6.53
2023-02-19T23:09:17.596Z,6.38
2023-02-19T23:11:44.919Z,6.75
2023-02-19T23:14:11.899Z,6.63
2023-02-19T23:16:38.659Z,7.05
2023-02-19T23:19:07.449Z,6.72
2023-02-19T23:21:34.376Z,6.07
2023-02-19T23:24:01.152Z,7.10
2023-02-19T23:26:27.764Z,6.68
2023-02-19T23:28:54.391Z,7.28
2023-02-19T23:31:21.106Z,6.88
2023-02-19T23:33:47.897Z,6.80
2023-02-19T23:36:15.461Z,7.72
2023-02-19T23:38:46.130Z,7.10
2023-02-19T23:41:15.608Z,8.20
2023-02-19T23:43:42.282Z,7.63
2023-02-19T23:46:09.506Z,7.88
2023-02-19T23:48:36.233Z,9.07
2023-02-19T23:51:02.913Z,7.32
2023-02-19T23:53:29.493Z,7.43
2023-02-19T23:55:56.366Z,8.32
2023-02-19T23:58:23.121Z,8.15
